KANQ/ANQ METAR and TAF weather

Enter ICAO airport designator
Station Type Date Time Source
KANQ METAR 2019/06/16 06:35 UTC NOAA

KANQ 160635Z AUTO 00000KT 2 1/2SM BR OVC003 18/18 A2980 RMK AO2


Station Type Date Time Source
KANQ Decoded METAR 2019/06/16 06:35 UTC NOAA

Station name not available
Jun 16, 2019 - 02:35 AM EDT / 2019.06.16 0635 UTC
Wind: Calm:0
Visibility: 2 1/2 mile(s):0
Sky conditions: overcast
Weather: mist
Temperature: 64 F (18 C)
Dew Point: 64 F (18 C)
Relative Humidity: 100%
Pressure (altimeter): 29.8 in. Hg (1009 hPa)
ob: KANQ 160635Z AUTO 00000KT 2 1/2SM BR OVC003 18/18 A2980 RMK AO2
cycle: 6

Station Type Date Time Source
KANQ TAF UTC NOAA

Error!

Example: see airport list